createdAt,value
2023-10-06T00:01:12.436Z,102254.16
2023-10-06T00:03:45.763Z,102262.34
2023-10-06T00:06:23.199Z,102250.19
2023-10-06T00:08:52.694Z,102256.28
2023-10-06T00:11:29.790Z,102246.75
2023-10-06T00:14:02.875Z,102242.00
2023-10-06T00:16:40.358Z,102241.16
2023-10-06T00:19:22.481Z,102227.13
2023-10-06T00:22:02.535Z,102227.72
2023-10-06T00:24:30.491Z,102228.19
2023-10-06T00:26:58.802Z,102219.63
2023-10-06T00:29:30.197Z,102222.91
2023-10-06T00:32:21.196Z,102227.44
2023-10-06T00:34:49.619Z,102230.84
2023-10-06T00:37:18.157Z,102233.03
2023-10-06T00:39:46.123Z,102234.38
2023-10-06T00:42:16.555Z,102248.16
2023-10-06T00:44:47.009Z,102248.03
2023-10-06T00:47:18.769Z,102252.13
2023-10-06T00:49:46.890Z,102245.69
2023-10-06T00:52:16.783Z,102239.22
2023-10-06T00:54:48.019Z,102236.63
2023-10-06T00:57:20.333Z,102231.50
2023-10-06T00:59:48.365Z,102224.66
2023-10-06T01:02:18.268Z,102221.22
2023-10-06T01:04:46.985Z,102233.53
2023-10-06T01:07:18.223Z,102232.47
2023-10-06T01:09:58.494Z,102225.97
2023-10-06T01:12:27.365Z,102222.16
2023-10-06T01:15:06.834Z,102222.16
2023-10-06T01:17:36.275Z,102222.16
2023-10-06T01:20:06.386Z,102217.88
2023-10-06T01:22:43.230Z,102211.00
2023-10-06T01:25:14.512Z,102215.78
2023-10-06T01:27:44.973Z,102214.94
2023-10-06T01:30:19.913Z,102210.53
2023-10-06T01:32:50.761Z,102213.59
2023-10-06T01:35:24.818Z,102204.56
2023-10-06T01:37:59.885Z,102201.91
2023-10-06T01:40:44.631Z,102197.38
2023-10-06T01:43:13.767Z,102187.28
2023-10-06T01:45:45.250Z,102187.28
2023-10-06T01:48:25.684Z,102189.34
2023-10-06T01:50:55.870Z,102185.94
2023-10-06T01:53:33.405Z,102189.81
2023-10-06T01:56:07.682Z,102184.00
2023-10-06T01:58:37.460Z,102176.25
2023-10-06T02:01:07.741Z,102169.31
2023-10-06T02:03:40.352Z,102170.56
2023-10-06T02:06:14.492Z,102170.81
2023-10-06T02:08:50.678Z,102166.50
2023-10-06T02:11:19.193Z,102163.09
2023-10-06T02:13:47.267Z,102166.50
2023-10-06T02:16:19.226Z,102166.78
2023-10-06T02:18:47.278Z,102161.53
2023-10-06T02:21:16.144Z,102154.22
2023-10-06T02:23:45.520Z,102149.69
2023-10-06T02:26:15.425Z,102155.28
2023-10-06T02:28:49.725Z,102161.75
2023-10-06T02:31:20.471Z,102153.13
2023-10-06T02:33:52.566Z,102149.28
2023-10-06T02:36:22.963Z,102138.94
2023-10-06T02:38:53.396Z,102141.75
2023-10-06T02:41:24.658Z,102134.06
2023-10-06T02:43:53.844Z,102134.19
2023-10-06T02:46:24.751Z,102132.63
2023-10-06T02:48:52.946Z,102126.38
2023-10-06T02:51:22.282Z,102121.63
2023-10-06T02:53:52.454Z,102137.97
2023-10-06T02:56:30.153Z,102141.81
2023-10-06T02:59:08.702Z,102130.19
2023-10-06T03:01:39.681Z,102127.63
2023-10-06T03:04:09.307Z,102127.53
2023-10-06T03:06:37.263Z,102134.47
2023-10-06T03:09:08.951Z,102126.06
2023-10-06T03:11:40.210Z,102119.38
2023-10-06T03:14:08.953Z,102118.50
2023-10-06T03:16:40.666Z,102130.31
2023-10-06T03:19:13.562Z,102120.94
2023-10-06T03:21:46.557Z,102121.53
2023-10-06T03:24:21.796Z,102115.09
2023-10-06T03:26:52.669Z,102106.19
2023-10-06T03:29:36.223Z,102105.94
2023-10-06T03:32:12.788Z,102102.44
2023-10-06T03:34:40.830Z,102107.56
2023-10-06T03:37:10.529Z,102119.88
2023-10-06T03:39:49.793Z,102111.06
2023-10-06T03:42:19.535Z,102106.31
2023-10-06T03:44:52.437Z,102105.22
2023-10-06T03:47:21.974Z,102112.19
2023-10-06T03:49:50.015Z,102113.03
2023-10-06T03:52:18.268Z,102103.50
2023-10-06T03:54:49.935Z,102102.06
2023-10-06T03:57:17.992Z,102099.00
2023-10-06T03:59:46.554Z,102108.53
2023-10-06T04:02:14.567Z,102104.63
2023-10-06T04:04:43.381Z,102107.19
2023-10-06T04:07:11.857Z,102099.84
2023-10-06T04:09:40.309Z,102096.22
2023-10-06T04:12:09.829Z,102088.03
2023-10-06T04:14:37.789Z,102092.16
2023-10-06T04:17:07.052Z,102082.63
2023-10-06T04:19:35.541Z,102079.59
2023-10-06T04:22:04.759Z,102080.19
2023-10-06T04:24:32.865Z,102069.63
2023-10-06T04:27:01.044Z,102067.03
2023-10-06T04:29:35.854Z,102062.28
2023-10-06T04:32:04.282Z,102054.13
2023-10-06T04:34:37.139Z,102057.25
2023-10-06T04:37:09.036Z,102040.91
2023-10-06T04:39:39.958Z,102044.81
2023-10-06T04:42:08.887Z,102037.47
2023-10-06T04:44:38.239Z,102034.53
2023-10-06T04:47:10.010Z,102039.91
2023-10-06T04:49:38.106Z,102041.00
2023-10-06T04:52:06.753Z,102045.75
2023-10-06T04:54:35.484Z,102030.16
2023-10-06T04:57:04.690Z,102033.81
2023-10-06T04:59:33.517Z,102035.03
2023-10-06T05:02:03.730Z,102035.78
2023-10-06T05:04:32.289Z,102031.84
2023-10-06T05:07:01.906Z,102031.75
2023-10-06T05:09:29.886Z,102028.56
2023-10-06T05:11:58.240Z,102033.59
2023-10-06T05:14:26.160Z,102024.94
2023-10-06T05:16:54.183Z,102022.84
2023-10-06T05:19:23.518Z,102011.13
2023-10-06T05:21:53.798Z,102009.31
2023-10-06T05:24:21.821Z,102005.84
2023-10-06T05:26:50.510Z,102001.22
2023-10-06T05:29:18.891Z,101997.31
2023-10-06T05:31:47.477Z,101993.44
2023-10-06T05:34:18.746Z,101998.41
2023-10-06T05:36:48.178Z,102013.06
2023-10-06T05:39:16.250Z,102004.41
2023-10-06T05:41:45.570Z,102008.66
2023-10-06T05:44:13.749Z,102009.16
2023-10-06T05:46:43.080Z,102002.69
2023-10-06T05:49:12.554Z,102012.97
2023-10-06T05:51:41.089Z,102012.72
2023-10-06T05:54:13.311Z,102001.38
2023-10-06T05:56:46.193Z,102004.78
2023-10-06T05:59:19.789Z,102004.41
2023-10-06T06:01:48.056Z,101989.03
2023-10-06T06:04:16.633Z,101987.47
2023-10-06T06:06:48.004Z,101979.31
2023-10-06T06:09:17.324Z,101983.78
2023-10-06T06:11:45.241Z,101985.28
2023-10-06T06:14:17.738Z,101971.88
2023-10-06T06:16:46.801Z,101974.44
2023-10-06T06:19:15.061Z,101971.00
2023-10-06T06:21:43.254Z,101971.75
2023-10-06T06:24:11.705Z,101969.22
2023-10-06T06:26:41.051Z,101962.84
2023-10-06T06:29:10.970Z,101966.78
2023-10-06T06:31:39.336Z,101962.63
2023-10-06T06:34:07.397Z,101958.97
2023-10-06T06:36:35.433Z,101950.75
2023-10-06T06:39:04.071Z,101954.06
2023-10-06T06:41:32.785Z,101977.38
2023-10-06T06:44:02.482Z,101967.00
2023-10-06T06:46:31.390Z,101973.09
2023-10-06T06:49:01.205Z,101986.41
2023-10-06T06:51:31.790Z,101985.56
2023-10-06T06:54:00.200Z,101999.09
2023-10-06T06:56:30.184Z,101978.47
2023-10-06T06:59:00.833Z,101976.66
2023-10-06T07:01:30.714Z,101976.00
2023-10-06T07:04:02.551Z,101964.16
2023-10-06T07:06:32.364Z,101971.00
2023-10-06T07:09:00.930Z,101962.59
2023-10-06T07:11:29.357Z,101955.25
2023-10-06T07:13:58.405Z,101933.06
2023-10-06T07:16:26.630Z,101947.81
2023-10-06T07:18:56.110Z,101953.91
2023-10-06T07:21:24.950Z,101947.69
2023-10-06T07:23:57.820Z,101951.38
2023-10-06T07:26:26.082Z,101942.56
2023-10-06T07:28:54.500Z,101950.78
2023-10-06T07:31:22.602Z,101946.84
2023-10-06T07:33:52.919Z,101942.09
2023-10-06T07:36:22.385Z,101950.66
2023-10-06T07:38:50.502Z,101946.75
2023-10-06T07:41:21.494Z,101944.06
2023-10-06T07:43:49.671Z,101942.63
2023-10-06T07:46:18.620Z,101944.31
2023-10-06T07:48:47.412Z,101947.38
2023-10-06T07:51:17.461Z,101950.66
2023-10-06T07:53:47.027Z,101950.06
2023-10-06T07:56:15.790Z,101947.84
2023-10-06T07:58:44.803Z,101946.78
2023-10-06T08:01:14.527Z,101955.19
2023-10-06T08:03:43.518Z,101960.22
2023-10-06T08:06:13.045Z,101962.16
2023-10-06T08:08:41.029Z,101961.88
2023-10-06T08:11:11.527Z,101961.53
2023-10-06T08:13:40.148Z,101954.69
2023-10-06T08:16:09.104Z,101950.41
2023-10-06T08:18:37.121Z,101946.53
2023-10-06T08:21:05.433Z,101947.75
2023-10-06T08:23:36.794Z,101936.50
2023-10-06T08:26:09.906Z,101925.03
2023-10-06T08:28:39.522Z,101919.53
2023-10-06T08:31:07.481Z,101913.44
2023-10-06T08:33:37.417Z,101920.84
2023-10-06T08:36:09.588Z,101923.06
2023-10-06T08:38:37.733Z,101911.94
2023-10-06T08:41:06.307Z,101909.25
2023-10-06T08:43:41.138Z,101914.72
2023-10-06T08:46:09.864Z,101904.94
2023-10-06T08:48:38.336Z,101908.38
2023-10-06T08:51:09.184Z,101904.22
2023-10-06T08:53:39.609Z,101900.97
2023-10-06T08:56:08.138Z,101910.75
2023-10-06T08:58:38.385Z,101914.06
2023-10-06T09:01:07.977Z,101911.75
2023-10-06T09:03:40.229Z,101914.13
2023-10-06T09:06:12.833Z,101902.38
2023-10-06T09:08:42.203Z,101908.50
2023-10-06T09:11:11.299Z,101917.56
2023-10-06T09:13:39.460Z,101918.75
2023-10-06T09:16:09.239Z,101923.19
2023-10-06T09:18:41.140Z,101928.09
2023-10-06T09:21:14.640Z,101928.97
2023-10-06T09:23:42.663Z,101932.59
2023-10-06T09:26:12.818Z,101937.25
2023-10-06T09:28:51.886Z,101930.94
2023-10-06T09:31:35.870Z,101931.44
2023-10-06T09:34:06.079Z,101928.38
2023-10-06T09:36:44.265Z,101915.44
2023-10-06T09:39:20.877Z,101900.78
2023-10-06T09:41:53.004Z,101895.19
2023-10-06T09:44:21.921Z,101901.41
2023-10-06T09:46:54.990Z,101894.31
2023-10-06T09:49:23.462Z,101886.00
2023-10-06T09:51:53.620Z,101882.47
2023-10-06T09:54:22.420Z,101884.69
2023-10-06T09:56:56.286Z,101886.75
2023-10-06T09:59:27.402Z,101878.00
2023-10-06T10:01:58.498Z,101880.09
2023-10-06T10:04:30.532Z,101886.91
2023-10-06T10:06:59.297Z,101883.75
2023-10-06T10:09:30.170Z,101875.34
2023-10-06T10:12:05.727Z,101883.63
2023-10-06T10:14:50.581Z,101875.69
2023-10-06T10:17:30.489Z,101874.09
2023-10-06T10:20:00.529Z,101879.13
2023-10-06T10:22:30.117Z,101872.25
2023-10-06T10:25:21.537Z,101878.72
2023-10-06T10:28:13.114Z,101872.59
2023-10-06T10:30:54.933Z,101872.53
2023-10-06T10:33:25.244Z,101864.19
2023-10-06T10:36:24.297Z,101854.06
2023-10-06T10:39:00.274Z,101857.38
2023-10-06T10:41:32.258Z,101857.13
2023-10-06T10:44:18.529Z,101858.47
2023-10-06T10:46:54.176Z,101873.72
2023-10-06T10:49:24.527Z,101865.41
2023-10-06T10:51:55.290Z,101865.75
2023-10-06T10:54:23.963Z,101871.56
2023-10-06T10:56:54.469Z,101868.19
2023-10-06T10:59:23.121Z,101870.00
2023-10-06T11:01:52.684Z,101863.31
2023-10-06T11:04:33.236Z,101864.41
2023-10-06T11:07:11.507Z,101852.56
2023-10-06T11:09:42.412Z,101856.47
2023-10-06T11:12:25.923Z,101854.59
2023-10-06T11:14:58.160Z,101851.78
2023-10-06T11:17:27.487Z,101845.84
2023-10-06T11:20:14.474Z,101834.13
2023-10-06T11:22:44.081Z,101831.81
2023-10-06T11:25:12.121Z,101830.69
2023-10-06T11:27:40.821Z,101814.53
2023-10-06T11:30:16.071Z,101807.34
2023-10-06T11:32:44.213Z,101788.88
2023-10-06T11:35:14.685Z,101784.13
2023-10-06T11:37:43.454Z,101791.31
2023-10-06T11:40:13.888Z,101782.03
2023-10-06T11:42:42.780Z,101782.66
2023-10-06T11:45:25.422Z,101773.44
2023-10-06T11:47:54.542Z,101773.53
2023-10-06T11:50:26.136Z,101783.91
2023-10-06T11:52:56.548Z,101780.19
2023-10-06T11:55:26.064Z,101779.25
2023-10-06T11:57:55.263Z,101777.34
2023-10-06T12:00:36.850Z,101776.06
2023-10-06T12:03:05.364Z,101773.09
2023-10-06T12:05:35.115Z,101771.19
2023-10-06T12:08:05.376Z,101773.38
2023-10-06T12:10:34.835Z,101765.22
2023-10-06T12:13:06.460Z,101773.31
2023-10-06T12:15:34.478Z,101769.41
2023-10-06T12:18:02.546Z,101761.09
2023-10-06T12:20:30.619Z,101757.88
2023-10-06T12:23:00.991Z,101744.47
2023-10-06T12:25:30.693Z,101744.78
2023-10-06T12:28:01.184Z,101737.56
2023-10-06T12:30:29.759Z,101733.97
2023-10-06T12:32:59.334Z,101731.72
2023-10-06T12:35:30.184Z,101732.84
2023-10-06T12:38:01.449Z,101737.34
2023-10-06T12:40:31.116Z,101740.25
2023-10-06T12:42:59.021Z,101742.59
2023-10-06T12:45:30.362Z,101739.78
2023-10-06T12:47:58.436Z,101735.03
2023-10-06T12:50:30.836Z,101737.31
2023-10-06T12:53:00.242Z,101728.94
2023-10-06T12:55:30.102Z,101743.97
2023-10-06T12:57:58.048Z,101731.72
2023-10-06T13:00:26.070Z,101736.94
2023-10-06T13:02:54.167Z,101725.78
2023-10-06T13:05:24.222Z,101713.66
2023-10-06T13:07:52.961Z,101711.63
2023-10-06T13:10:23.545Z,101708.88
2023-10-06T13:12:52.301Z,101703.72
2023-10-06T13:15:21.320Z,101706.25
2023-10-06T13:17:50.768Z,101703.41
2023-10-06T13:20:18.993Z,101700.66
2023-10-06T13:22:48.884Z,101692.25
2023-10-06T13:25:18.636Z,101698.72
2023-10-06T13:27:49.793Z,101687.19
2023-10-06T13:30:18.359Z,101692.00
2023-10-06T13:32:49.368Z,101696.50
2023-10-06T13:35:18.585Z,101688.66
2023-10-06T13:37:46.912Z,101682.72
2023-10-06T13:40:16.917Z,101691.22
2023-10-06T13:42:48.324Z,101691.53
2023-10-06T13:45:19.119Z,101686.47
2023-10-06T13:47:50.929Z,101688.72
2023-10-06T13:50:20.384Z,101689.03
2023-10-06T13:52:50.909Z,101683.69
2023-10-06T13:55:19.950Z,101671.84
2023-10-06T13:57:53.012Z,101678.66
2023-10-06T14:00:30.165Z,101675.84
2023-10-06T14:03:00.017Z,101671.88
2023-10-06T14:05:32.086Z,101666.31
2023-10-06T14:08:00.677Z,101662.94
2023-10-06T14:10:28.883Z,101656.72
2023-10-06T14:13:02.134Z,101657.88
2023-10-06T14:15:41.998Z,101652.78
2023-10-06T14:18:13.588Z,101649.66
2023-10-06T14:20:42.218Z,101654.50
2023-10-06T14:23:13.014Z,101651.13
2023-10-06T14:25:41.968Z,101648.31
2023-10-06T14:28:11.813Z,101649.09
2023-10-06T14:30:43.271Z,101641.16
2023-10-06T14:33:25.584Z,101631.31
2023-10-06T14:36:11.140Z,101635.81
2023-10-06T14:38:56.982Z,101628.50
2023-10-06T14:41:42.380Z,101620.63
2023-10-06T14:44:29.420Z,101613.31
2023-10-06T14:46:59.864Z,101606.22
2023-10-06T14:49:28.190Z,101613.31
2023-10-06T14:51:57.902Z,101608.22
2023-10-06T14:54:27.272Z,101612.13
2023-10-06T14:56:57.185Z,101607.59
2023-10-06T14:59:31.808Z,101600.78
2023-10-06T15:02:00.029Z,101606.16
2023-10-06T15:04:28.197Z,101606.47
2023-10-06T15:06:56.140Z,101616.66
2023-10-06T15:09:24.155Z,101612.13
2023-10-06T15:11:52.544Z,101610.44
2023-10-06T15:14:26.156Z,101600.53
2023-10-06T15:16:55.911Z,101594.88
2023-10-06T15:19:26.385Z,101587.88
2023-10-06T15:21:56.515Z,101590.38
2023-10-06T15:24:24.775Z,101587.28
2023-10-06T15:26:52.877Z,101577.41
2023-10-06T15:29:21.990Z,101575.16
2023-10-06T15:31:50.836Z,101579.66
2023-10-06T15:34:20.434Z,101583.34
2023-10-06T15:36:48.527Z,101584.75
2023-10-06T15:39:20.074Z,101580.22
2023-10-06T15:41:49.914Z,101577.09
2023-10-06T15:44:18.836Z,101585.31
2023-10-06T15:46:47.280Z,101587.88
2023-10-06T15:49:19.740Z,101587.81
2023-10-06T15:51:53.582Z,101577.91
2023-10-06T15:54:21.574Z,101584.41
2023-10-06T15:56:49.537Z,101583.00
2023-10-06T15:59:18.883Z,101585.56
2023-10-06T16:01:48.452Z,101581.03
2023-10-06T16:04:18.933Z,101583.25
2023-10-06T16:06:48.160Z,101585.22
2023-10-06T16:09:18.484Z,101578.47
2023-10-06T16:11:47.274Z,101580.44
2023-10-06T16:14:17.528Z,101573.94
2023-10-06T16:16:47.341Z,101554.44
2023-10-06T16:19:15.585Z,101549.41
2023-10-06T16:21:44.036Z,101559.31
2023-10-06T16:24:13.703Z,101568.03
2023-10-06T16:26:44.055Z,101559.28
2023-10-06T16:29:13.929Z,101557.28
2023-10-06T16:31:42.557Z,101561.75
2023-10-06T16:34:10.576Z,101555.56
2023-10-06T16:36:40.449Z,101556.09
2023-10-06T16:39:17.825Z,101558.34
2023-10-06T16:41:47.754Z,101547.91
2023-10-06T16:44:16.310Z,101549.31
2023-10-06T16:46:44.675Z,101554.41
2023-10-06T16:49:13.265Z,101552.41
2023-10-06T16:51:41.531Z,101557.22
2023-10-06T16:54:11.109Z,101565.69
2023-10-06T16:56:39.851Z,101551.03
2023-10-06T16:59:09.529Z,101553.28
2023-10-06T17:01:40.127Z,101549.34
2023-10-06T17:04:15.631Z,101558.63
2023-10-06T17:06:43.979Z,101565.94
2023-10-06T17:09:15.402Z,101562.00
2023-10-06T17:11:44.713Z,101565.91
2023-10-06T17:14:15.805Z,101568.97
2023-10-06T17:16:44.008Z,101576.56
2023-10-06T17:19:13.657Z,101567.31
2023-10-06T17:21:43.693Z,101566.75
2023-10-06T17:24:12.471Z,101572.09
2023-10-06T17:26:41.177Z,101570.69
2023-10-06T17:29:12.494Z,101577.41
2023-10-06T17:31:42.268Z,101575.97
2023-10-06T17:34:10.406Z,101573.06
2023-10-06T17:36:41.002Z,101570.81
2023-10-06T17:39:09.204Z,101571.56
2023-10-06T17:41:37.572Z,101574.09
2023-10-06T17:44:06.569Z,101567.59
2023-10-06T17:46:34.519Z,101562.47
2023-10-06T17:49:04.100Z,101566.69
2023-10-06T17:51:32.170Z,101552.03
2023-10-06T17:54:00.143Z,101559.06
2023-10-06T17:56:28.759Z,101547.78
2023-10-06T17:58:57.006Z,101554.53
2023-10-06T18:01:25.059Z,101558.50
2023-10-06T18:03:54.362Z,101550.00
2023-10-06T18:06:23.924Z,101562.13
2023-10-06T18:08:53.114Z,101562.69
2023-10-06T18:11:21.168Z,101568.84
2023-10-06T18:13:50.818Z,101562.59
2023-10-06T18:16:18.855Z,101559.41
2023-10-06T18:18:47.216Z,101560.53
2023-10-06T18:21:15.165Z,101576.00
2023-10-06T18:23:44.532Z,101575.13
2023-10-06T18:26:13.879Z,101573.09
2023-10-06T18:28:41.987Z,101571.69
2023-10-06T18:31:10.418Z,101571.06
2023-10-06T18:33:39.437Z,101586.28
2023-10-06T18:36:11.358Z,101581.22
2023-10-06T18:38:39.902Z,101568.25
2023-10-06T18:41:13.746Z,101567.13
2023-10-06T18:43:42.703Z,101567.63
2023-10-06T18:46:11.893Z,101564.81
2023-10-06T18:48:40.042Z,101567.84
2023-10-06T18:51:08.049Z,101562.81
2023-10-06T18:53:36.097Z,101557.97
2023-10-06T18:56:04.761Z,101554.59
2023-10-06T18:58:34.401Z,101565.84
2023-10-06T19:01:04.261Z,101559.69
2023-10-06T19:03:32.902Z,101555.41
2023-10-06T19:06:01.549Z,101550.00
2023-10-06T19:08:32.571Z,101558.50
2023-10-06T19:11:00.686Z,101553.44
2023-10-06T19:13:28.877Z,101550.63
2023-10-06T19:15:59.607Z,101554.31
2023-10-06T19:18:30.233Z,101547.81
2023-10-06T19:21:01.318Z,101541.34
2023-10-06T19:23:31.907Z,101541.63
2023-10-06T19:26:04.508Z,101536.53
2023-10-06T19:28:32.597Z,101539.38
2023-10-06T19:31:02.094Z,101536.56
2023-10-06T19:33:30.520Z,101538.53
2023-10-06T19:35:58.753Z,101545.31
2023-10-06T19:38:27.012Z,101534.91
2023-10-06T19:40:55.188Z,101528.16
2023-10-06T19:43:23.296Z,101529.28
2023-10-06T19:45:52.971Z,101529.28
2023-10-06T19:48:23.100Z,101520.28
2023-10-06T19:50:51.102Z,101518.88
2023-10-06T19:53:19.305Z,101511.06
2023-10-06T19:55:48.393Z,101504.25
2023-10-06T19:58:17.969Z,101512.44
2023-10-06T20:00:46.375Z,101507.34
2023-10-06T20:03:14.535Z,101501.19
2023-10-06T20:05:43.971Z,101519.72
2023-10-06T20:08:11.968Z,101505.97
2023-10-06T20:10:40.746Z,101501.44
2023-10-06T20:13:08.980Z,101504.00
2023-10-06T20:15:37.773Z,101504.00
2023-10-06T20:18:07.667Z,101507.97
2023-10-06T20:20:35.856Z,101506.28
2023-10-06T20:23:05.624Z,101496.13
2023-10-06T20:25:34.080Z,101506.81
2023-10-06T20:28:04.028Z,101502.91
2023-10-06T20:30:32.260Z,101498.09
2023-10-06T20:33:00.848Z,101489.09
2023-10-06T20:35:29.077Z,101496.75
2023-10-06T20:37:57.244Z,101499.56
2023-10-06T20:40:29.467Z,101499.00
2023-10-06T20:42:58.877Z,101493.38
2023-10-06T20:45:28.859Z,101491.72
2023-10-06T20:47:57.146Z,101502.91
2023-10-06T20:50:25.438Z,101503.53
2023-10-06T20:52:54.420Z,101499.56
2023-10-06T20:55:23.369Z,101503.53
2023-10-06T20:57:53.065Z,101489.72
2023-10-06T21:00:22.968Z,101491.97
2023-10-06T21:02:54.065Z,101489.72
2023-10-06T21:05:22.145Z,101488.34
2023-10-06T21:07:50.459Z,101472.56
2023-10-06T21:10:19.983Z,101477.63
2023-10-06T21:12:48.053Z,101464.41
2023-10-06T21:15:17.779Z,101469.75
2023-10-06T21:17:48.629Z,101470.31
2023-10-06T21:20:17.429Z,101480.53
2023-10-06T21:22:45.439Z,101472.28
2023-10-06T21:25:14.982Z,101468.94
2023-10-06T21:27:43.569Z,101465.03
2023-10-06T21:30:16.936Z,101471.78
2023-10-06T21:32:47.179Z,101473.47
2023-10-06T21:35:15.825Z,101474.03
2023-10-06T21:37:45.717Z,101472.06
2023-10-06T21:40:14.195Z,101474.59
2023-10-06T21:42:42.472Z,101476.00
2023-10-06T21:45:11.222Z,101468.09
2023-10-06T21:47:39.415Z,101475.44
2023-10-06T21:50:10.517Z,101469.88
2023-10-06T21:52:41.748Z,101476.59
2023-10-06T21:55:12.114Z,101467.59
2023-10-06T21:57:40.697Z,101461.44
2023-10-06T22:00:26.128Z,101462.53
2023-10-06T22:02:54.908Z,101456.38
2023-10-06T22:05:24.738Z,101451.31
2023-10-06T22:07:53.279Z,101463.16
2023-10-06T22:10:21.448Z,101472.19
2023-10-06T22:12:50.032Z,101469.41
2023-10-06T22:15:18.023Z,101471.41
2023-10-06T22:17:47.117Z,101463.75
2023-10-06T22:20:15.681Z,101462.94
2023-10-06T22:22:45.112Z,101459.81
2023-10-06T22:25:14.497Z,101455.84
2023-10-06T22:27:43.937Z,101452.78
2023-10-06T22:30:13.613Z,101461.53
2023-10-06T22:32:42.632Z,101451.97
2023-10-06T22:35:12.088Z,101445.19
2023-10-06T22:37:40.179Z,101440.09
2023-10-06T22:40:17.681Z,101433.34
2023-10-06T22:42:48.685Z,101430.28
2023-10-06T22:45:19.224Z,101433.97
2023-10-06T22:47:49.449Z,101428.31
2023-10-06T22:50:20.480Z,101432.84
2023-10-06T22:52:50.709Z,101441.06
2023-10-06T22:55:20.847Z,101434.56
2023-10-06T22:57:51.416Z,101430.38
2023-10-06T23:00:19.487Z,101430.03
2023-10-06T23:02:48.641Z,101435.66
2023-10-06T23:05:17.248Z,101429.47
2023-10-06T23:07:46.607Z,101434.50
2023-10-06T23:10:15.795Z,101431.69
2023-10-06T23:12:45.590Z,101424.66
2023-10-06T23:15:14.024Z,101430.53
2023-10-06T23:17:42.618Z,101435.94
2023-10-06T23:20:24.035Z,101439.31
2023-10-06T23:22:54.499Z,101439.00
2023-10-06T23:25:24.126Z,101436.47
2023-10-06T23:27:54.137Z,101440.09
2023-10-06T23:30:23.695Z,101448.84
2023-10-06T23:32:51.977Z,101433.06
2023-10-06T23:35:19.993Z,101441.53
2023-10-06T23:37:48.064Z,101455.34
2023-10-06T23:40:22.117Z,101446.34
2023-10-06T23:42:51.721Z,101459.59
2023-10-06T23:45:21.159Z,101458.72
2023-10-06T23:47:49.255Z,101449.72
2023-10-06T23:50:18.371Z,101460.97
2023-10-06T23:52:47.532Z,101442.91
2023-10-06T23:55:17.055Z,101450.81
2023-10-06T23:57:51.368Z,101444.63
